Time;durP1;ratioP1;P1;durP2;ratioP2;P2;SDS_P1;SDS_P2;PMS_P1;PMS_P2;Temp;Humidity;BMP_temperature;BMP_pressure;BME280_temperature;BME280_humidity;BME280_pressure;Samples;Min_cycle;Max_cycle;Signal;HPM_P1;HPM_P2
2023/07/14 00:00:38;;;;;;;1.30;1.08;;;;;;;19.80;82.32;99679.09;5114084;28;20130;-62
2023/07/14 00:03:08;;;;;;;1.85;1.60;;;;;;;19.71;82.18;99674.25;5114109;28;20056;-61
2023/07/14 00:05:40;;;;;;;1.40;0.73;;;;;;;19.62;82.56;99677.22;5114102;28;20136;-61
2023/07/14 00:08:18;;;;;;;1.67;1.23;;;;;;;19.64;82.60;99685.75;5114058;28;20048;-61
2023/07/14 00:10:49;;;;;;;1.20;1.10;;;;;;;19.64;82.38;99688.34;5114339;28;20501;-61
2023/07/14 00:13:17;;;;;;;1.02;0.80;;;;;;;19.56;82.45;99690.38;5114092;28;20048;-61
2023/07/14 00:15:46;;;;;;;5.28;1.20;;;;;;;19.48;82.39;99692.41;5113853;28;20505;-61
2023/07/14 00:18:21;;;;;;;1.00;1.00;;;;;;;19.43;82.41;99696.91;5113938;28;20039;-61
2023/07/14 00:20:50;;;;;;;1.00;0.80;;;;;;;19.35;82.88;99693.72;5113872;28;20043;-62
2023/07/14 00:23:19;;;;;;;1.95;1.10;;;;;;;19.29;82.82;99699.13;5114487;28;20127;-63
2023/07/14 00:25:49;;;;;;;1.23;0.87;;;;;;;19.32;82.96;99696.41;5113779;28;20044;-62
2023/07/14 00:28:20;;;;;;;1.10;0.90;;;;;;;19.33;83.26;99705.88;5113902;28;20279;-61
2023/07/14 00:30:49;;;;;;;1.25;1.15;;;;;;;19.31;83.11;99703.34;5112570;28;20048;-62
2023/07/14 00:33:20;;;;;;;1.13;0.90;;;;;;;19.20;83.03;99699.44;5112596;28;20108;-62
2023/07/14 00:35:49;;;;;;;3.38;1.35;;;;;;;19.09;83.34;99701.56;5113706;28;20059;-61
2023/07/14 00:38:18;;;;;;;1.30;0.90;;;;;;;19.11;83.36;99704.94;5112547;28;20123;-61
2023/07/14 00:40:49;;;;;;;1.40;1.30;;;;;;;19.17;83.15;99707.31;5112499;28;20371;-61
2023/07/14 00:43:25;;;;;;;0.95;0.77;;;;;;;19.14;82.91;99715.19;5113772;28;20058;-62
2023/07/14 00:45:56;;;;;;;1.20;1.10;;;;;;;19.17;82.98;99715.91;5113758;28;20044;-61
2023/07/14 00:48:28;;;;;;;3.13;1.08;;;;;;;19.22;82.85;99723.50;5114086;28;20071;-62
2023/07/14 00:51:01;;;;;;;0.70;0.65;;;;;;;19.23;82.59;99725.22;5113723;28;20485;-62
2023/07/14 00:53:34;;;;;;;1.23;1.13;;;;;;;19.10;82.28;99734.31;5113649;28;20078;-61
2023/07/14 00:56:32;;;;;;;1.23;1.13;;;;;;;18.99;82.30;99731.22;5113871;28;20047;-61
2023/07/14 00:59:01;;;;;;;2.30;1.02;;;;;;;19.00;82.13;99727.75;5112467;28;20047;-62
2023/07/14 01:01:32;;;;;;;0.50;0.50;;;;;;;18.98;82.31;99729.56;5113509;28;20070;-62
2023/07/14 01:04:02;;;;;;;0.77;0.65;;;;;;;18.93;81.85;99726.28;5113598;28;20093;-61
2023/07/14 01:06:34;;;;;;;2.28;1.75;;;;;;;18.89;81.98;99730.69;5114155;28;20036;-61
2023/07/14 01:09:05;;;;;;;1.38;1.27;;;;;;;18.88;81.81;99723.00;5117280;28;20052;-62
2023/07/14 01:11:42;;;;;;;1.90;1.33;;;;;;;18.86;81.78;99730.78;5117268;28;20478;-62
2023/07/14 01:14:19;;;;;;;0.85;0.80;;;;;;;18.89;81.58;99735.88;5117187;28;20052;-62
2023/07/14 01:16:50;;;;;;;0.88;0.80;;;;;;;18.90;81.55;99731.53;5115966;28;20048;-61
2023/07/14 01:19:25;;;;;;;1.98;1.08;;;;;;;18.85;81.35;99736.03;5115891;28;20093;-61
2023/07/14 01:22:05;;;;;;;1.02;0.93;;;;;;;18.80;81.28;99745.66;5117132;28;20119;-61
2023/07/14 01:24:42;;;;;;;1.48;1.30;;;;;;;18.75;81.31;99748.41;5116710;28;20055;-61
2023/07/14 01:27:13;;;;;;;3.80;2.42;;;;;;;18.68;81.44;99737.44;5115675;28;20052;-61
2023/07/14 01:29:43;;;;;;;1.38;1.20;;;;;;;18.61;81.67;99751.47;5117193;28;20401;-61
2023/07/14 01:32:17;;;;;;;0.77;0.77;;;;;;;18.58;81.55;99754.13;5116834;28;20051;-61
2023/07/14 01:34:48;;;;;;;1.45;1.35;;;;;;;18.58;81.69;99746.38;5117078;28;20044;-62
2023/07/14 01:37:20;;;;;;;1.50;1.17;;;;;;;18.48;81.49;99734.63;5116980;28;20489;-61
2023/07/14 01:39:54;;;;;;;1.88;1.13;;;;;;;18.46;81.81;99738.16;5115768;28;20446;-61
2023/07/14 01:42:25;;;;;;;1.30;1.20;;;;;;;18.36;82.06;99740.16;5116965;27;20043;-61
2023/07/14 01:44:55;;;;;;;0.85;0.80;;;;;;;18.30;81.91;99740.38;5116625;28;20052;-61
2023/07/14 01:47:24;;;;;;;1.00;0.90;;;;;;;18.23;82.26;99736.28;5116522;28;20085;-61
2023/07/14 01:49:53;;;;;;;;;;;;;;;18.30;82.32;99740.38;5116927;28;20052;-61
2023/07/14 01:52:27;;;;;;;0.80;0.77;;;;;;;18.37;82.28;99739.28;5116752;28;19920;-61
2023/07/14 01:54:59;;;;;;;1.25;1.15;;;;;;;18.43;82.43;99741.66;5116504;28;20058;-61
2023/07/14 01:57:35;;;;;;;1.58;1.13;;;;;;;18.44;82.52;99743.34;5115313;28;20062;-61
2023/07/14 02:00:09;;;;;;;3.70;2.15;;;;;;;18.47;82.97;99742.44;5116550;28;20043;-61
2023/07/14 02:02:45;;;;;;;;;;;;;;;18.47;83.45;99738.13;5115747;28;20404;-61
2023/07/14 02:05:22;;;;;;;2.10;1.15;;;;;;;18.47;83.97;99743.31;5116775;28;20278;-61
2023/07/14 02:07:59;;;;;;;2.17;1.80;;;;;;;18.49;84.18;99745.81;5116212;28;20036;-62
2023/07/14 02:10:28;;;;;;;1.10;1.00;;;;;;;18.36;84.58;99750.50;5116133;28;20374;-61
2023/07/14 02:13:01;;;;;;;1.75;1.60;;;;;;;18.26;85.11;99753.44;5114879;28;20047;-61
2023/07/14 02:15:33;;;;;;;1.40;1.10;;;;;;;18.22;85.48;99752.66;5116088;28;20122;-61
2023/07/14 02:18:03;;;;;;;2.20;2.00;;;;;;;18.24;85.81;99752.59;5115201;28;20447;-61
2023/07/14 02:20:34;;;;;;;1.73;1.35;;;;;;;18.34;85.94;99754.88;5115679;28;20065;-61
2023/07/14 02:23:06;;;;;;;3.90;2.63;;;;;;;18.41;85.73;99763.28;5116171;28;20043;-62
2023/07/14 02:25:42;;;;;;;2.35;1.58;;;;;;;18.40;85.81;99759.88;5115726;28;20061;-61
2023/07/14 02:28:14;;;;;;;5.50;2.35;;;;;;;18.36;85.62;99768.59;5115692;28;20131;-61
2023/07/14 02:30:51;;;;;;;2.13;1.50;;;;;;;18.29;86.16;99769.66;5116020;28;20043;-61
2023/07/14 02:33:28;;;;;;;0.70;0.70;;;;;;;18.26;86.39;99767.16;5115656;28;20489;-61
2023/07/14 02:36:02;;;;;;;1.77;1.05;;;;;;;18.24;86.43;99762.94;5114555;28;20038;-61
2023/07/14 02:38:31;;;;;;;2.40;1.88;;;;;;;18.15;86.81;99766.66;5114281;28;20493;-61
2023/07/14 02:41:07;;;;;;;2.42;2.08;;;;;;;18.15;87.06;99763.22;5114567;28;20397;-61
2023/07/14 02:43:38;;;;;;;1.95;1.67;;;;;;;18.25;87.27;99774.97;5115510;28;20048;-61
2023/07/14 02:46:16;;;;;;;0.90;0.85;;;;;;;18.33;87.23;99786.75;5115702;28;20101;-61
2023/07/14 02:48:49;;;;;;;3.15;1.80;;;;;;;18.36;87.05;99786.69;5115392;28;20044;-61
2023/07/14 02:51:18;;;;;;;2.42;1.58;;;;;;;18.36;87.29;99785.81;5115700;28;20043;-61
2023/07/14 02:53:47;;;;;;;1.80;1.63;;;;;;;18.35;86.94;99779.84;5114017;28;20481;-61
2023/07/14 02:56:16;;;;;;;1.05;0.95;;;;;;;18.37;86.70;99783.22;5115724;28;20511;-61
2023/07/14 02:58:49;;;;;;;1.25;1.05;;;;;;;18.34;86.01;99785.03;5115132;28;20044;-61
2023/07/14 03:01:20;;;;;;;0.85;0.77;;;;;;;18.32;86.26;99785.09;5113878;28;20055;-62
2023/07/14 03:03:50;;;;;;;1.40;1.27;;;;;;;18.31;86.06;99783.38;5115336;28;20055;-61
2023/07/14 03:06:21;;;;;;;2.20;1.60;;;;;;;18.30;86.00;99796.38;5115262;27;20039;-61
2023/07/14 03:08:51;;;;;;;3.28;1.75;;;;;;;18.26;85.54;99790.44;5114914;28;20134;-61
2023/07/14 03:11:19;;;;;;;1.33;1.05;;;;;;;18.27;85.64;99797.31;5115096;28;20047;-61
2023/07/14 03:13:51;;;;;;;1.88;1.67;;;;;;;18.25;85.59;99799.09;5114889;28;20105;-61
2023/07/14 03:16:21;;;;;;;2.17;1.20;;;;;;;18.18;85.24;99802.75;5115686;28;20044;-61
2023/07/14 03:18:50;;;;;;;1.50;1.35;;;;;;;18.18;85.52;99807.06;5114789;28;20505;-62
2023/07/14 03:21:19;;;;;;;0.63;0.63;;;;;;;18.15;85.51;99802.84;5114521;28;20046;-61
2023/07/14 03:23:49;;;;;;;1.05;0.95;;;;;;;18.16;85.54;99806.25;5114329;28;20105;-61
2023/07/14 03:26:18;;;;;;;0.95;0.93;;;;;;;18.17;85.60;99806.22;5114725;28;20044;-61
2023/07/14 03:28:47;;;;;;;1.20;1.00;;;;;;;18.22;85.53;99809.50;5114647;28;20040;-61
2023/07/14 03:31:17;;;;;;;0.90;0.90;;;;;;;18.20;85.43;99816.47;5114311;28;20139;-61
2023/07/14 03:33:47;;;;;;;3.47;1.50;;;;;;;18.12;85.56;99813.25;5096564;28;20531;-61
2023/07/14 03:36:20;;;;;;;3.13;1.50;;;;;;;18.14;85.85;99810.63;5114774;28;20096;-61
2023/07/14 03:39:24;;;;;;;1.30;1.20;;;;;;;18.18;85.76;99820.84;5114585;28;20563;-61
2023/07/14 03:41:55;;;;;;;1.52;1.33;;;;;;;18.23;85.90;99820.69;5112688;28;20505;-61
2023/07/14 03:44:26;;;;;;;0.80;0.80;;;;;;;18.19;85.70;99819.94;5113477;28;20485;-61
2023/07/14 03:46:56;;;;;;;2.22;1.25;;;;;;;18.12;85.69;99818.41;5114323;28;20052;-61
2023/07/14 03:49:26;;;;;;;0.70;0.70;;;;;;;18.18;85.97;99822.56;5114395;28;20039;-61
2023/07/14 03:51:55;;;;;;;0.77;0.75;;;;;;;18.25;85.78;99814.59;5114505;28;20059;-61
2023/07/14 03:54:24;;;;;;;1.20;1.10;;;;;;;18.35;85.58;99818.59;5114250;28;20089;-62
2023/07/14 03:56:53;;;;;;;0.53;0.53;;;;;;;18.34;85.45;99819.47;5114447;28;20130;-61
2023/07/14 03:59:22;;;;;;;5.93;2.42;;;;;;;18.38;85.21;99821.06;5114126;28;20286;-61
2023/07/14 04:01:51;;;;;;;2.63;1.63;;;;;;;18.40;85.27;99821.91;5114432;28;20040;-61
2023/07/14 04:04:22;;;;;;;1.75;1.25;;;;;;;18.46;85.13;99821.72;5114194;28;20130;-61
2023/07/14 04:06:51;;;;;;;0.85;0.80;;;;;;;18.44;84.86;99826.06;5114203;28;20071;-61
2023/07/14 04:09:20;;;;;;;1.00;0.90;;;;;;;18.44;84.91;99828.66;5113693;28;20065;-61
2023/07/14 04:11:49;;;;;;;1.77;1.40;;;;;;;18.46;84.84;99826.03;5113888;28;20044;-61
2023/07/14 04:14:18;;;;;;;1.38;1.27;;;;;;;18.49;84.71;99829.41;5113103;28;20549;-62
2023/07/14 04:16:47;;;;;;;2.35;1.08;;;;;;;18.48;84.44;99832.88;5113932;28;20043;-61
2023/07/14 04:19:16;;;;;;;1.30;1.20;;;;;;;18.48;84.44;99838.03;5113992;28;20040;-62
2023/07/14 04:21:47;;;;;;;1.55;1.13;;;;;;;18.51;84.07;99837.94;5114053;28;20055;-62
2023/07/14 04:24:16;;;;;;;2.58;2.05;;;;;;;18.54;83.96;99843.03;5113578;28;20051;-61
2023/07/14 04:26:45;;;;;;;1.20;1.10;;;;;;;18.60;83.72;99842.84;5114147;28;20393;-62
2023/07/14 04:29:14;;;;;;;3.43;1.27;;;;;;;18.73;83.45;99843.31;5113799;28;20040;-62
2023/07/14 04:31:43;;;;;;;0.88;0.80;;;;;;;18.75;83.23;99841.50;5113851;28;20268;-61
2023/07/14 04:34:12;;;;;;;0.90;0.82;;;;;;;18.77;83.10;99849.22;5114018;28;20031;-61
2023/07/14 04:36:45;;;;;;;0.68;0.68;;;;;;;18.79;82.98;99852.63;5113887;28;20050;-61
2023/07/14 04:39:15;;;;;;;1.92;1.08;;;;;;;18.76;82.82;99857.88;5114068;28;20051;-62
2023/07/14 04:41:45;;;;;;;0.40;0.40;;;;;;;18.82;82.83;99847.34;5114521;28;20066;-61
2023/07/14 04:44:15;;;;;;;0.77;0.75;;;;;;;18.92;82.87;99854.75;5117666;28;20085;-62
2023/07/14 04:46:46;;;;;;;0.77;0.77;;;;;;;19.02;82.51;99861.34;5117706;28;20126;-62
2023/07/14 04:49:16;;;;;;;2.10;1.52;;;;;;;19.08;82.54;99855.94;5117719;28;20078;-61
2023/07/14 04:51:45;;;;;;;;;;;;;;;19.20;82.14;99854.69;5117961;28;20043;-62
2023/07/14 04:54:15;;;;;;;0.87;0.80;;;;;;;19.25;81.76;99863.16;5117793;28;19919;-62
2023/07/14 04:56:44;;;;;;;0.43;0.43;;;;;;;19.29;81.41;99859.59;5117583;28;20788;-61
2023/07/14 04:59:13;;;;;;;0.67;0.67;;;;;;;19.44;81.21;99866.88;5117758;28;20040;-62
2023/07/14 05:01:41;;;;;;;0.60;0.60;;;;;;;19.48;80.81;99868.47;5117304;28;20088;-62
2023/07/14 05:04:11;;;;;;;10.52;1.17;;;;;;;19.55;80.55;99862.19;5117290;28;20062;-61
2023/07/14 05:06:40;;;;;;;1.10;1.02;;;;;;;19.73;80.09;99871.91;5117402;28;20044;-61
2023/07/14 05:09:10;;;;;;;1.15;1.05;;;;;;;19.83;79.63;99873.28;5117273;28;20038;-62
2023/07/14 05:11:41;;;;;;;1.40;0.95;;;;;;;19.90;79.19;99866.97;5117536;28;20505;-62
2023/07/14 05:14:10;;;;;;;1.45;1.30;;;;;;;20.02;78.72;99866.53;5117471;28;20088;-62
2023/07/14 05:16:39;;;;;;;1.02;1.00;;;;;;;20.11;78.44;99872.28;5117451;28;20123;-62
2023/07/14 05:19:09;;;;;;;1.50;1.33;;;;;;;20.14;78.20;99859.19;5117060;28;20485;-62
2023/07/14 05:21:37;;;;;;;2.53;1.58;;;;;;;20.17;78.01;99866.88;5116968;28;20039;-62
2023/07/14 05:24:07;;;;;;;0.77;0.75;;;;;;;20.24;77.56;99868.38;5116677;28;20054;-62
2023/07/14 05:26:35;;;;;;;2.88;1.77;;;;;;;20.27;76.97;99870.84;5117324;28;20078;-62
2023/07/14 05:29:06;;;;;;;0.98;0.95;;;;;;;20.38;77.01;99868.69;5117188;28;20040;-62
2023/07/14 05:31:35;;;;;;;0.70;0.65;;;;;;;20.57;76.74;99867.09;5117289;28;20058;-62
2023/07/14 05:34:04;;;;;;;1.20;1.10;;;;;;;20.66;76.02;99871.91;5116714;28;20052;-61
2023/07/14 05:36:33;;;;;;;0.77;0.77;;;;;;;20.68;75.54;99875.31;5116759;28;20035;-61
2023/07/14 05:39:01;;;;;;;11.55;1.05;;;;;;;20.74;75.19;99869.88;5116963;28;20287;-62
2023/07/14 05:41:30;;;;;;;0.57;0.50;;;;;;;20.84;74.73;99863.44;5116978;28;20042;-62
2023/07/14 05:43:59;;;;;;;0.70;0.70;;;;;;;20.95;74.32;99863.84;5116631;28;20367;-62
2023/07/14 05:46:30;;;;;;;0.60;0.50;;;;;;;21.02;73.79;99860.09;5116784;28;20043;-62
2023/07/14 05:48:59;;;;;;;0.82;0.82;;;;;;;21.14;73.64;99862.22;5117374;28;20371;-61
2023/07/14 05:51:28;;;;;;;5.07;1.65;;;;;;;21.32;73.56;99864.09;5116773;28;20043;-63
2023/07/14 05:53:56;;;;;;;1.08;0.85;;;;;;;21.48;73.33;99866.88;5116253;28;20043;-61
2023/07/14 05:56:25;;;;;;;0.60;0.60;;;;;;;21.62;73.22;99859.31;5110579;28;20404;-62
2023/07/14 05:58:55;;;;;;;0.80;0.63;;;;;;;21.64;72.30;99865.34;5095900;28;20032;-62
2023/07/14 06:01:25;;;;;;;1.92;1.48;;;;;;;21.64;71.55;99860.13;5096212;28;20105;-62
2023/07/14 06:03:55;;;;;;;1.00;0.90;;;;;;;21.63;71.41;99867.97;5096130;28;20427;-62
2023/07/14 06:06:24;;;;;;;0.95;0.70;;;;;;;21.69;71.56;99858.16;5096048;28;20048;-62
2023/07/14 06:08:55;;;;;;;1.17;0.98;;;;;;;21.82;71.20;99859.31;5095784;28;20042;-62
2023/07/14 06:11:24;;;;;;;0.60;0.60;;;;;;;21.91;70.92;99858.09;5094954;28;20048;-63
2023/07/14 06:13:53;;;;;;;0.52;0.52;;;;;;;22.01;70.50;99864.59;5101037;28;20520;-61
2023/07/14 06:16:22;;;;;;;1.52;1.23;;;;;;;22.04;70.12;99859.25;5110006;28;20043;-63
2023/07/14 06:18:52;;;;;;;0.95;0.88;;;;;;;22.17;69.85;99860.38;5115860;28;20039;-62
2023/07/14 06:21:23;;;;;;;0.40;0.40;;;;;;;22.22;69.39;99863.63;5099157;28;20453;-61
2023/07/14 06:23:52;;;;;;;0.70;0.70;;;;;;;22.30;69.23;99871.94;5094591;28;20040;-61
2023/07/14 06:26:21;;;;;;;0.70;0.70;;;;;;;22.32;68.58;99857.09;5095463;28;20044;-62
2023/07/14 06:28:50;;;;;;;1.48;1.23;;;;;;;22.48;68.65;99854.66;5095338;28;20047;-62
2023/07/14 06:31:18;;;;;;;0.80;0.80;;;;;;;22.59;68.27;99857.56;5109547;28;20058;-62
2023/07/14 06:33:47;;;;;;;0.50;0.50;;;;;;;22.74;68.04;99856.91;5116040;28;20120;-62
2023/07/14 06:36:16;;;;;;;1.15;1.05;;;;;;;22.72;68.06;99853.53;5115848;28;20044;-62
2023/07/14 06:38:47;;;;;;;0.73;0.73;;;;;;;22.91;67.98;99869.09;5115818;28;20051;-62
2023/07/14 06:41:16;;;;;;;0.65;0.65;;;;;;;23.08;66.57;99866.53;5100220;28;20119;-62
2023/07/14 06:43:45;;;;;;;1.25;1.15;;;;;;;23.20;65.32;99868.53;5094434;28;20043;-62
2023/07/14 06:46:14;;;;;;;0.75;0.75;;;;;;;23.27;64.75;99862.91;5094987;28;20051;-61
2023/07/14 06:48:45;;;;;;;0.57;0.57;;;;;;;23.34;64.31;99859.13;5095188;28;20044;-62
2023/07/14 06:51:14;;;;;;;0.68;0.68;;;;;;;23.39;64.17;99864.13;5094833;28;20040;-62
2023/07/14 06:53:45;;;;;;;0.55;0.55;;;;;;;23.52;64.25;99862.56;5094848;28;20044;-62
2023/07/14 06:56:15;;;;;;;1.25;1.15;;;;;;;23.61;63.92;99851.69;5095140;28;20401;-61
2023/07/14 06:58:44;;;;;;;3.00;2.15;;;;;;;23.80;63.78;99867.25;5095030;28;20156;-61
2023/07/14 07:01:13;;;;;;;1.05;0.80;;;;;;;23.92;63.51;99867.41;5097225;28;20074;-63
2023/07/14 07:03:43;;;;;;;;;;;;;;;24.03;63.33;99859.03;5094979;28;20044;-62
2023/07/14 07:06:12;;;;;;;0.50;0.50;;;;;;;24.14;62.55;99866.34;5094002;28;20396;-63
2023/07/14 07:08:42;;;;;;;0.43;0.43;;;;;;;24.22;62.33;99864.16;5094831;28;20047;-62
2023/07/14 07:11:11;;;;;;;0.77;0.63;;;;;;;24.26;61.59;99857.88;5105884;28;20497;-62
2023/07/14 07:13:41;;;;;;;0.50;0.50;;;;;;;24.26;61.63;99850.03;5114728;28;20047;-62
2023/07/14 07:16:10;;;;;;;0.50;0.50;;;;;;;24.43;61.25;99847.31;5115090;28;20401;-61
2023/07/14 07:18:39;;;;;;;0.80;0.80;;;;;;;24.58;60.77;99846.50;5108615;28;20073;-62
2023/07/14 07:21:12;;;;;;;0.63;0.63;;;;;;;24.66;60.78;99849.53;5094409;28;20067;-61
2023/07/14 07:23:41;;;;;;;4.35;1.05;;;;;;;24.78;60.03;99848.88;5093951;28;20093;-63
2023/07/14 07:26:10;;;;;;;0.50;0.50;;;;;;;24.77;59.69;99844.56;5094335;28;20047;-62
2023/07/14 07:28:39;;;;;;;;;;;;;;;24.78;59.57;99848.88;5094423;28;20047;-62
2023/07/14 07:31:11;;;;;;;0.60;0.60;;;;;;;24.85;59.65;99845.00;5094503;28;20293;-62
2023/07/14 07:33:42;;;;;;;0.55;0.55;;;;;;;24.97;58.52;99843.47;5094445;28;20044;-62
2023/07/14 07:36:16;;;;;;;1.25;0.95;;;;;;;25.04;58.04;99845.63;5094074;28;20083;-62
2023/07/14 07:38:47;;;;;;;0.40;0.40;;;;;;;25.09;57.27;99851.44;5094138;28;20044;-62
2023/07/14 07:41:17;;;;;;;0.60;0.60;;;;;;;25.20;57.47;99851.66;5093549;28;20055;-62
2023/07/14 07:43:46;;;;;;;0.55;0.55;;;;;;;25.19;56.95;99844.72;5094194;28;20399;-62
2023/07/14 07:46:16;;;;;;;1.85;1.38;;;;;;;25.42;56.55;99839.94;5094845;28;20127;-63
2023/07/14 07:48:46;;;;;;;0.40;0.40;;;;;;;25.60;55.82;99838.91;5111386;28;20055;-64
2023/07/14 07:51:15;;;;;;;0.50;0.50;;;;;;;25.69;55.18;99833.97;5091929;28;20036;-62
2023/07/14 07:53:44;;;;;;;0.60;0.60;;;;;;;25.77;54.66;99830.88;5093844;28;20508;-62
2023/07/14 07:56:12;;;;;;;0.45;0.45;;;;;;;25.94;54.19;99825.44;5095516;28;20090;-61
2023/07/14 07:58:42;;;;;;;;;;;;;;;26.02;53.18;99828.44;5114884;28;20489;-62
2023/07/14 08:01:20;;;;;;;0.50;0.50;;;;;;;26.09;52.21;99821.03;5108422;28;20377;-63
2023/07/14 08:03:50;;;;;;;0.40;0.40;;;;;;;26.22;51.21;99822.84;5114320;28;20388;-62
2023/07/14 08:06:21;;;;;;;1.15;0.60;;;;;;;26.30;50.25;99825.00;5108461;28;20562;-63
2023/07/14 08:08:51;;;;;;;0.50;0.50;;;;;;;26.36;49.69;99817.59;5093937;28;20440;-62
2023/07/14 08:11:19;;;;;;;0.30;0.30;;;;;;;26.43;48.88;99826.72;5093508;28;20102;-63
2023/07/14 08:13:48;;;;;;;0.43;0.43;;;;;;;26.47;48.43;99832.59;5108550;28;20040;-65
2023/07/14 08:16:18;;;;;;;0.55;0.55;;;;;;;26.55;47.71;99833.81;5092327;28;20043;-61
2023/07/14 08:18:47;;;;;;;0.30;0.30;;;;;;;26.51;46.50;99834.91;5098185;28;20554;-62
2023/07/14 08:21:16;;;;;;;0.40;0.40;;;;;;;26.63;47.02;99828.09;5097764;28;20051;-63
2023/07/14 08:23:45;;;;;;;0.38;0.38;;;;;;;26.82;46.02;99836.47;5097651;28;20062;-63
2023/07/14 08:26:14;;;;;;;1.33;0.85;;;;;;;26.86;44.15;99837.94;5095643;28;20040;-62
2023/07/14 08:28:43;;;;;;;0.43;0.43;;;;;;;26.96;43.67;99836.41;5097629;28;20127;-62
2023/07/14 08:31:14;;;;;;;0.50;0.50;;;;;;;27.01;42.39;99828.25;5097606;28;20127;-62
2023/07/14 08:33:44;;;;;;;0.90;0.47;;;;;;;27.04;41.92;99826.25;5097491;28;20052;-61
2023/07/14 08:36:14;;;;;;;0.68;0.68;;;;;;;27.14;42.39;99819.47;5097219;28;20044;-62
2023/07/14 08:38:44;;;;;;;0.47;0.47;;;;;;;27.22;42.59;99822.41;5098041;28;20502;-62
2023/07/14 08:41:21;;;;;;;0.45;0.45;;;;;;;27.25;42.66;99826.63;5097687;28;20051;-62
2023/07/14 08:44:08;;;;;;;0.55;0.55;;;;;;;27.29;42.69;99828.09;5097634;28;20050;-62
2023/07/14 08:46:44;;;;;;;0.50;0.50;;;;;;;27.32;42.72;99827.03;5096550;28;20035;-63
2023/07/14 08:49:22;;;;;;;0.50;0.50;;;;;;;27.43;42.02;99830.66;5097613;28;20060;-62
2023/07/14 08:51:55;;;;;;;0.68;0.68;;;;;;;27.51;42.17;99828.34;5096240;28;20127;-61
2023/07/14 08:54:32;;;;;;;0.68;0.55;;;;;;;27.57;42.10;99821.88;5097382;28;20105;-62
2023/07/14 08:57:02;;;;;;;0.57;0.50;;;;;;;27.68;42.18;99830.66;5097137;28;20493;-62
2023/07/14 08:59:34;;;;;;;0.70;0.60;;;;;;;27.85;41.36;99821.63;5096976;28;20072;-62
2023/07/14 09:02:19;;;;;;;0.60;0.60;;;;;;;28.00;41.28;99823.22;5095047;28;20084;-63
2023/07/14 09:04:58;;;;;;;0.88;0.88;;;;;;;28.04;40.47;99818.59;5096800;28;20524;-63
2023/07/14 09:07:27;;;;;;;0.40;0.40;;;;;;;28.12;39.32;99822.34;5097219;28;20130;-63
2023/07/14 09:09:56;;;;;;;0.40;0.40;;;;;;;28.12;39.71;99813.66;5096392;28;20055;-63
2023/07/14 09:12:34;;;;;;;0.45;0.45;;;;;;;28.08;40.73;99812.16;5117023;28;20031;-62
2023/07/14 09:15:07;;;;;;;0.52;0.50;;;;;;;28.16;41.26;99820.34;5109080;28;20065;-62
2023/07/14 09:17:57;;;;;;;0.40;0.40;;;;;;;28.25;40.68;99814.44;5111734;28;20042;-62
2023/07/14 09:20:46;;;;;;;0.75;0.60;;;;;;;28.46;40.96;99818.16;5096695;28;20055;-62
2023/07/14 09:23:30;;;;;;;0.50;0.50;;;;;;;28.47;40.40;99825.09;5096725;28;20051;-62
2023/07/14 09:26:09;;;;;;;1.10;0.95;;;;;;;28.63;40.13;99817.81;5096265;28;20045;-62
2023/07/14 09:28:39;;;;;;;;;;;;;;;28.72;39.20;99814.53;5096432;28;20086;-62
2023/07/14 09:31:23;;;;;;;0.93;0.93;;;;;;;28.84;37.82;99810.97;5096505;28;19920;-62
2023/07/14 09:33:58;;;;;;;0.50;0.50;;;;;;;28.75;37.71;99803.78;5108206;28;20447;-63
2023/07/14 09:36:35;;;;;;;;;;;;;;;28.77;37.98;99807.13;5096960;28;20040;-62
2023/07/14 09:39:08;;;;;;;0.55;0.55;;;;;;;28.81;37.34;99800.72;5096362;28;19969;-62
2023/07/14 09:41:37;;;;;;;0.40;0.40;;;;;;;28.93;37.24;99804.22;5096329;28;20047;-62
2023/07/14 09:44:06;;;;;;;0.40;0.40;;;;;;;29.04;37.56;99810.34;5096151;28;20071;-62
2023/07/14 09:46:44;;;;;;;0.50;0.50;;;;;;;29.24;38.16;99797.53;5101052;28;20101;-62
2023/07/14 09:49:24;;;;;;;1.23;0.52;;;;;;;29.43;38.91;99805.69;5096374;28;20527;-62
2023/07/14 09:52:18;;;;;;;0.40;0.40;;;;;;;29.42;38.29;99807.47;5096094;28;20064;-61
2023/07/14 09:54:54;;;;;;;1.67;1.23;;;;;;;29.20;36.75;99805.63;5096307;28;20044;-63
2023/07/14 09:57:27;;;;;;;0.60;0.60;;;;;;;29.16;36.77;99798.91;5100976;28;20040;-62
2023/07/14 10:00:22;;;;;;;0.40;0.40;;;;;;;29.20;36.44;99805.63;5096142;28;20406;-61
2023/07/14 10:02:58;;;;;;;0.65;0.65;;;;;;;29.19;36.33;99805.75;5096185;28;20109;-63
2023/07/14 10:05:36;;;;;;;0.70;0.70;;;;;;;29.45;36.30;99798.53;5095774;28;20040;-63
2023/07/14 10:08:28;;;;;;;0.60;0.60;;;;;;;29.41;35.88;99802.34;5097350;28;20413;-63
2023/07/14 10:11:00;;;;;;;0.85;0.70;;;;;;;29.46;35.64;99794.94;5096026;28;20490;-61
2023/07/14 10:13:32;;;;;;;0.50;0.50;;;;;;;29.50;35.87;99796.38;5095605;28;20052;-62
2023/07/14 10:16:08;;;;;;;0.40;0.40;;;;;;;29.64;35.97;99783.84;5095743;28;20036;-62
2023/07/14 10:18:51;;;;;;;0.40;0.40;;;;;;;29.58;35.58;99778.22;5094697;28;20131;-62
2023/07/14 10:21:26;;;;;;;0.50;0.50;;;;;;;29.71;36.25;99774.50;5097552;28;20035;-61
2023/07/14 10:24:04;;;;;;;0.82;0.82;;;;;;;29.86;36.60;99785.66;5094948;28;20712;-62
2023/07/14 10:26:36;;;;;;;;;;;;;;;30.10;37.80;99781.09;5097518;28;20044;-60
2023/07/14 10:29:06;;;;;;;0.50;0.50;;;;;;;30.11;36.62;99768.78;5095335;28;19923;-62
2023/07/14 10:31:39;;;;;;;0.47;0.47;;;;;;;30.00;35.71;99764.34;5095671;28;20166;-63
2023/07/14 10:34:24;;;;;;;0.45;0.45;;;;;;;29.93;35.17;99757.88;5095658;28;20040;-62
2023/07/14 10:36:57;;;;;;;0.50;0.50;;;;;;;29.85;35.59;99762.91;5102123;28;20092;-62
2023/07/14 10:39:37;;;;;;;0.50;0.50;;;;;;;29.88;35.90;99770.56;5115002;27;20043;-62
2023/07/14 10:42:23;;;;;;;0.90;0.82;;;;;;;29.92;34.88;99758.88;5107016;28;20052;-62
2023/07/14 10:44:52;;;;;;;0.60;0.60;;;;;;;30.00;34.09;99752.97;5095304;28;20063;-62
2023/07/14 10:47:25;;;;;;;0.50;0.50;;;;;;;30.10;34.24;99752.13;5094899;28;20044;-62
2023/07/14 10:50:05;;;;;;;0.60;0.60;;;;;;;30.08;33.79;99756.69;5094973;28;20105;-63
2023/07/14 10:52:39;;;;;;;0.50;0.50;;;;;;;29.85;33.68;99755.00;5095066;28;20039;-62
2023/07/14 10:55:20;;;;;;;0.57;0.57;;;;;;;29.65;33.55;99750.47;5094880;28;20084;-61
2023/07/14 10:57:57;;;;;;;0.40;0.40;;;;;;;29.73;33.78;99745.44;5094833;28;20071;-62
2023/07/14 11:00:33;;;;;;;0.55;0.40;;;;;;;29.71;34.10;99747.34;5094742;28;20051;-62
2023/07/14 11:03:22;;;;;;;0.45;0.45;;;;;;;29.83;34.10;99738.50;5095271;28;20093;-61
2023/07/14 11:05:57;;;;;;;0.65;0.65;;;;;;;29.84;33.75;99738.41;5095018;28;20044;-62
2023/07/14 11:08:29;;;;;;;0.88;0.82;;;;;;;29.99;33.79;99731.09;5094660;28;20068;-61
2023/07/14 11:11:10;;;;;;;0.60;0.60;;;;;;;29.93;33.21;99736.81;5100054;28;20044;-61
2023/07/14 11:13:52;;;;;;;0.40;0.40;;;;;;;29.80;32.99;99736.16;5115167;28;20047;-62
2023/07/14 11:16:27;;;;;;;0.43;0.43;;;;;;;29.66;33.71;99725.81;5115173;28;20066;-61
2023/07/14 11:19:02;;;;;;;1.27;1.15;;;;;;;29.78;33.99;99727.50;5114801;27;20054;-61
2023/07/14 11:21:42;;;;;;;0.40;0.40;;;;;;;29.98;34.28;99729.41;5112956;28;20085;-61
2023/07/14 11:24:19;;;;;;;0.63;0.60;;;;;;;30.07;34.08;99733.09;5115047;28;20070;-61
2023/07/14 11:27:07;;;;;;;0.50;0.50;;;;;;;30.20;34.36;99721.47;5114515;27;20408;-62
2023/07/14 11:29:43;;;;;;;0.57;0.55;;;;;;;30.25;33.95;99710.53;5104590;28;20040;-62
2023/07/14 11:32:20;;;;;;;0.32;0.32;;;;;;;30.24;33.50;99722.03;5100153;28;20440;-62
2023/07/14 11:34:59;;;;;;;0.77;0.63;;;;;;;30.22;33.55;99711.63;5093274;28;20164;-61
2023/07/14 11:37:45;;;;;;;0.40;0.40;;;;;;;30.16;33.95;99717.38;5094175;28;20054;-61
2023/07/14 11:40:20;;;;;;;5.68;0.65;;;;;;;29.98;33.93;99718.03;5093132;28;20036;-61
2023/07/14 11:42:55;;;;;;;0.68;0.63;;;;;;;30.03;34.40;99703.53;5094283;28;20040;-61
2023/07/14 11:45:29;;;;;;;1.13;0.63;;;;;;;30.30;34.64;99706.59;5093970;28;20044;-61
2023/07/14 11:48:00;;;;;;;0.52;0.52;;;;;;;30.58;34.25;99706.97;5094277;28;20113;-61
2023/07/14 11:50:32;;;;;;;0.50;0.50;;;;;;;30.86;34.04;99717.72;5092499;28;20180;-61
2023/07/14 11:53:18;;;;;;;0.40;0.40;;;;;;;31.12;33.76;99708.47;5094240;28;20036;-61
2023/07/14 11:55:51;;;;;;;0.75;0.40;;;;;;;31.16;33.33;99709.06;5093842;28;20036;-62
2023/07/14 11:58:27;;;;;;;0.55;0.55;;;;;;;31.11;33.14;99705.97;5104055;28;20046;-61
2023/07/14 12:01:00;;;;;;;0.70;0.70;;;;;;;30.91;33.24;99707.66;5112056;28;20044;-62